Bel Air, MD

3:49 PM EST on February 09, 2016 (GMT -0500)
GLENWOOD TURBO | | Change Station
CLOSE
Current Station
Personal Weather Station
Location: Bel Air, MD
Elevation: 302 ft
Nearby Weather Stations
Active Advisory: Winter Weather Advisory Active Notice: Public Information Statement

Elev 302 ft 39.51 °N, 76.32 °W | Updated 7 minutes ago

Snow
Snow
34.9 °F
Feels Like 35 °F
N
0.0
Wind Variable Wind from East

Today
High -- | Low -- °F
--% Chance of Precip.
Yesterday
High -- | Low -- °F
Precip. -- in
Pressure 29.56 in
Visibility 0.5 miles
Clouds Overcast 500 ft
Windchill 35 °F
Dew Point 34 °F
Humidity 95%
Rainfall 0.01 in
Snow Depth Not available.
7:05 AM 5:34 PM
New Moon, 2% visible
METAR KAPG 091954Z 00000KT 1/2SM -SN OVC005 01/00 A2956
Pressure 29.56 in
Visibility 0.5 miles
Clouds Overcast 500 ft
Windchill 35 °F
Dew Point 34 °F
Humidity 95%
Rainfall 0.01 in
Snow Depth Not available.
7:05 AM 5:34 PM
New Moon, 2% visible
METAR KAPG 091954Z 00000KT 1/2SM -SN OVC005 01/00 A2956

10-Day Weather Forecast

Almanac

Astronomy

Feb. 09, 2016 Rise Set
Actual Time
Civil Twilight
Nautical Twilight
Astronomical Twilight
Moon
Length of Visible Light
Length of Day
Tomorrow will be .
, % of the Moon is Illuminated

Today's Extremes

State Highs State Lows

Community

WunderPhotos

Upload Photos

1,891,683 photos uploaded!

WunderBlog® & News

Nearby

Air Quality

  Air Quality AQ Index Pollutant
Not available.

Snow Depth

Station Depth Elevation

Earthquake Activity

City Distance Mag. Time & Date
Minimum magnitude displayed is 2.5.

Coastal Water Temperatures

Place Temperature

Stations

Nearby Weather Stations

Station Location Temp. Windchill Dew Point Humidity Wind Precip. Elev Updated Type
                   

Watches & Warnings

Winter Weather Advisory
Issued: 2:22 PM EST Feb. 9, 2016 – National Weather Service

... Winter Weather Advisory remains in effect until midnight EST
tonight...

* precipitation type... snow.

* Accumulations... snow accumulation of 2 to 5 inches.

* Timing... snow will continue into this evening... with periods
of heavier snow possible... mainly near the Mason-Dixon line.
Snow should taper off around midnight.

* Impacts... snow covered roads and travel disruptions possible.

* Winds... east 5 to 10 mph becoming north this afternoon.

* Temperatures... lower 30s.

Precautionary/preparedness actions...

A Winter Weather Advisory for snow means that periods of snow
will cause primarily travel difficulties. Be prepared for snow
covered roads and limited visibilities... and use caution while
driving.